HLE weather

Lago Escondido Heliport
Lago Escondido, Río Negro Province, Argentina

Public forecast

Using degrees Celsius for public forecast. Weather courtesy of forecast.io.

Closest aviation weather report (METAR) to Lago Escondido Heliport

Closest report is San Carlos De Bariloche Airport, 38.8 nm (71.9 km) NNE. Retrieved 2019/10/19 03:00 UTC (4 minutes ago):

SAZS 190300Z 18006KT CAVOK 07/M04 Q1021

Closest aviation forecast (TAF) to Lago Escondido Heliport

Closest forecast is San Carlos De Bariloche Airport, 38.8 nm (71.9 km) NNE. Retrieved 2019-10-19 00:00 UTC (3 hours ago):

TAF SAZS 182300Z 1900/1924 25005KT CAVOK TX23/1919Z TN04/1911Z BECMG 1903/1905 16005KT BECMG 1908/1909 16010KT BECMG 1916/1918 05015KT